sensor_id;sensor_type;location;lat;lon;timestamp;temperature;humidity
42245;DHT22;27912;51.828;5.688;2022-09-09T00:03:54;15.20;99.90
42245;DHT22;27912;51.828;5.688;2022-09-09T00:06:31;15.10;99.90
42245;DHT22;27912;51.828;5.688;2022-09-09T00:09:16;15.10;99.90
42245;DHT22;27912;51.828;5.688;2022-09-09T00:11:51;15.00;99.90
42245;DHT22;27912;51.828;5.688;2022-09-09T00:17:18;15.00;99.90
42245;DHT22;27912;51.828;5.688;2022-09-09T00:20:12;14.90;99.90
42245;DHT22;27912;51.828;5.688;2022-09-09T00:22:45;14.90;99.90
42245;DHT22;27912;51.828;5.688;2022-09-09T00:25:19;14.80;99.90
42245;DHT22;27912;51.828;5.688;2022-09-09T00:27:49;14.80;99.90
42245;DHT22;27912;51.828;5.688;2022-09-09T00:30:28;14.80;99.90
42245;DHT22;27912;51.828;5.688;2022-09-09T00:33:00;14.70;99.90
42245;DHT22;27912;51.828;5.688;2022-09-09T00:35:49;14.70;99.90
42245;DHT22;27912;51.828;5.688;2022-09-09T00:38:18;14.60;99.90
42245;DHT22;27912;51.828;5.688;2022-09-09T00:40:54;14.60;99.90
42245;DHT22;27912;51.828;5.688;2022-09-09T00:43:27;14.50;99.90
42245;DHT22;27912;51.828;5.688;2022-09-09T00:46:07;14.40;99.90
42245;DHT22;27912;51.828;5.688;2022-09-09T00:48:52;14.40;99.90
42245;DHT22;27912;51.828;5.688;2022-09-09T00:51:40;14.30;99.90
42245;DHT22;27912;51.828;5.688;2022-09-09T00:56:51;14.30;99.90
42245;DHT22;27912;51.828;5.688;2022-09-09T00:59:52;14.20;99.90
42245;DHT22;27912;51.828;5.688;2022-09-09T01:02:21;14.20;99.90
42245;DHT22;27912;51.828;5.688;2022-09-09T01:04:48;14.20;99.90
42245;DHT22;27912;51.828;5.688;2022-09-09T01:07:18;14.10;99.90
42245;DHT22;27912;51.828;5.688;2022-09-09T01:09:58;14.10;99.90
42245;DHT22;27912;51.828;5.688;2022-09-09T01:12:38;14.10;99.90
42245;DHT22;27912;51.828;5.688;2022-09-09T01:18:10;14.00;99.90
42245;DHT22;27912;51.828;5.688;2022-09-09T01:21:12;13.90;99.90
42245;DHT22;27912;51.828;5.688;2022-09-09T01:26:42;13.90;99.90
42245;DHT22;27912;51.828;5.688;2022-09-09T01:29:10;13.90;99.90
42245;DHT22;27912;51.828;5.688;2022-09-09T01:31:39;13.80;99.90
42245;DHT22;27912;51.828;5.688;2022-09-09T01:34:14;13.80;99.90
42245;DHT22;27912;51.828;5.688;2022-09-09T01:36:53;13.80;99.90
42245;DHT22;27912;51.828;5.688;2022-09-09T01:39:21;13.80;99.90
42245;DHT22;27912;51.828;5.688;2022-09-09T01:41:46;13.70;99.90
42245;DHT22;27912;51.828;5.688;2022-09-09T01:44:12;13.70;99.90
42245;DHT22;27912;51.828;5.688;2022-09-09T01:46:38;13.70;99.90
42245;DHT22;27912;51.828;5.688;2022-09-09T01:49:05;13.70;99.90
42245;DHT22;27912;51.828;5.688;2022-09-09T01:51:32;13.60;99.90
42245;DHT22;27912;51.828;5.688;2022-09-09T01:53:59;13.60;99.90
42245;DHT22;27912;51.828;5.688;2022-09-09T02:01:56;13.50;99.90
42245;DHT22;27912;51.828;5.688;2022-09-09T02:07:01;13.50;99.90
42245;DHT22;27912;51.828;5.688;2022-09-09T02:09:29;13.50;99.90
42245;DHT22;27912;51.828;5.688;2022-09-09T02:12:05;13.50;99.90
42245;DHT22;27912;51.828;5.688;2022-09-09T02:14:37;13.50;99.90
42245;DHT22;27912;51.828;5.688;2022-09-09T02:17:10;13.40;99.90
42245;DHT22;27912;51.828;5.688;2022-09-09T02:19:44;13.40;99.90
42245;DHT22;27912;51.828;5.688;2022-09-09T02:22:11;13.40;99.90
42245;DHT22;27912;51.828;5.688;2022-09-09T02:24:39;13.40;99.90
42245;DHT22;27912;51.828;5.688;2022-09-09T02:27:08;13.40;99.90
42245;DHT22;27912;51.828;5.688;2022-09-09T02:29:40;13.40;99.90
42245;DHT22;27912;51.828;5.688;2022-09-09T02:32:17;13.40;99.90
42245;DHT22;27912;51.828;5.688;2022-09-09T02:34:47;13.40;99.90
42245;DHT22;27912;51.828;5.688;2022-09-09T02:37:15;13.40;99.90
42245;DHT22;27912;51.828;5.688;2022-09-09T02:39:42;13.40;99.90
42245;DHT22;27912;51.828;5.688;2022-09-09T02:42:07;13.40;99.90
42245;DHT22;27912;51.828;5.688;2022-09-09T02:44:33;13.40;99.90
42245;DHT22;27912;51.828;5.688;2022-09-09T02:49:54;13.40;99.90
42245;DHT22;27912;51.828;5.688;2022-09-09T02:52:32;13.40;99.90
42245;DHT22;27912;51.828;5.688;2022-09-09T02:55:11;13.30;99.90
42245;DHT22;27912;51.828;5.688;2022-09-09T02:57:40;13.30;99.90
42245;DHT22;27912;51.828;5.688;2022-09-09T03:00:07;13.30;99.90
42245;DHT22;27912;51.828;5.688;2022-09-09T03:02:33;13.30;99.90
42245;DHT22;27912;51.828;5.688;2022-09-09T03:04:58;13.30;99.90
42245;DHT22;27912;51.828;5.688;2022-09-09T03:07:24;13.30;99.90
42245;DHT22;27912;51.828;5.688;2022-09-09T03:09:49;13.30;99.90
42245;DHT22;27912;51.828;5.688;2022-09-09T03:12:15;13.30;99.90
42245;DHT22;27912;51.828;5.688;2022-09-09T03:14:41;13.30;99.90
42245;DHT22;27912;51.828;5.688;2022-09-09T03:17:07;13.30;99.90
42245;DHT22;27912;51.828;5.688;2022-09-09T03:19:34;13.30;99.90
42245;DHT22;27912;51.828;5.688;2022-09-09T03:22:00;13.30;99.90
42245;DHT22;27912;51.828;5.688;2022-09-09T03:24:26;13.30;99.90
42245;DHT22;27912;51.828;5.688;2022-09-09T03:26:51;13.30;99.90
42245;DHT22;27912;51.828;5.688;2022-09-09T03:29:17;13.40;99.90
42245;DHT22;27912;51.828;5.688;2022-09-09T03:31:43;13.40;99.90
42245;DHT22;27912;51.828;5.688;2022-09-09T03:34:09;13.40;99.90
42245;DHT22;27912;51.828;5.688;2022-09-09T03:36:35;13.40;99.90
42245;DHT22;27912;51.828;5.688;2022-09-09T03:39:01;13.40;99.90
42245;DHT22;27912;51.828;5.688;2022-09-09T03:41:28;13.50;99.90
42245;DHT22;27912;51.828;5.688;2022-09-09T03:43:54;13.50;99.90
42245;DHT22;27912;51.828;5.688;2022-09-09T03:46:22;13.50;99.90
42245;DHT22;27912;51.828;5.688;2022-09-09T03:48:47;13.50;99.90
42245;DHT22;27912;51.828;5.688;2022-09-09T03:51:13;13.60;99.90
42245;DHT22;27912;51.828;5.688;2022-09-09T03:53:39;13.60;99.90
42245;DHT22;27912;51.828;5.688;2022-09-09T03:56:06;13.60;99.90
42245;DHT22;27912;51.828;5.688;2022-09-09T03:58:36;13.70;99.90
42245;DHT22;27912;51.828;5.688;2022-09-09T04:01:10;13.70;99.90
42245;DHT22;27912;51.828;5.688;2022-09-09T04:03:38;13.80;99.90
42245;DHT22;27912;51.828;5.688;2022-09-09T04:06:05;13.80;99.90
42245;DHT22;27912;51.828;5.688;2022-09-09T04:08:33;13.80;99.90
42245;DHT22;27912;51.828;5.688;2022-09-09T04:10:59;13.90;99.90
42245;DHT22;27912;51.828;5.688;2022-09-09T04:13:26;13.90;99.90
42245;DHT22;27912;51.828;5.688;2022-09-09T04:15:56;13.90;99.90
42245;DHT22;27912;51.828;5.688;2022-09-09T04:18:23;13.90;99.90
42245;DHT22;27912;51.828;5.688;2022-09-09T04:20:50;14.00;99.90
42245;DHT22;27912;51.828;5.688;2022-09-09T04:23:16;14.00;99.90
42245;DHT22;27912;51.828;5.688;2022-09-09T04:25:45;14.00;99.90
42245;DHT22;27912;51.828;5.688;2022-09-09T04:28:16;14.00;99.90
42245;DHT22;27912;51.828;5.688;2022-09-09T04:30:42;14.10;99.90
42245;DHT22;27912;51.828;5.688;2022-09-09T04:33:09;14.10;99.90
42245;DHT22;27912;51.828;5.688;2022-09-09T04:35:35;14.10;99.90
42245;DHT22;27912;51.828;5.688;2022-09-09T04:38:02;14.10;99.90
42245;DHT22;27912;51.828;5.688;2022-09-09T04:40:28;14.20;99.90
42245;DHT22;27912;51.828;5.688;2022-09-09T04:42:55;14.20;99.90
42245;DHT22;27912;51.828;5.688;2022-09-09T04:45:22;14.20;99.90
42245;DHT22;27912;51.828;5.688;2022-09-09T04:47:48;14.30;99.90
42245;DHT22;27912;51.828;5.688;2022-09-09T04:50:14;14.30;99.90
42245;DHT22;27912;51.828;5.688;2022-09-09T04:52:40;14.30;99.90
42245;DHT22;27912;51.828;5.688;2022-09-09T04:55:07;14.40;99.90
42245;DHT22;27912;51.828;5.688;2022-09-09T04:57:32;14.40;99.90
42245;DHT22;27912;51.828;5.688;2022-09-09T04:59:59;14.40;99.90
42245;DHT22;27912;51.828;5.688;2022-09-09T05:02:26;14.40;99.90
42245;DHT22;27912;51.828;5.688;2022-09-09T05:04:51;14.40;99.90
42245;DHT22;27912;51.828;5.688;2022-09-09T05:07:18;14.40;99.90
42245;DHT22;27912;51.828;5.688;2022-09-09T05:09:44;14.40;99.90
42245;DHT22;27912;51.828;5.688;2022-09-09T05:12:10;14.30;99.90
42245;DHT22;27912;51.828;5.688;2022-09-09T05:14:37;14.30;99.90
42245;DHT22;27912;51.828;5.688;2022-09-09T05:17:03;14.30;99.90
42245;DHT22;27912;51.828;5.688;2022-09-09T05:19:29;14.30;99.90
42245;DHT22;27912;51.828;5.688;2022-09-09T05:21:56;14.40;99.90
42245;DHT22;27912;51.828;5.688;2022-09-09T05:24:22;14.40;99.90
42245;DHT22;27912;51.828;5.688;2022-09-09T05:26:51;14.40;99.90
42245;DHT22;27912;51.828;5.688;2022-09-09T05:29:17;14.50;99.90
42245;DHT22;27912;51.828;5.688;2022-09-09T05:31:45;14.50;99.90
42245;DHT22;27912;51.828;5.688;2022-09-09T05:34:10;14.50;99.90
42245;DHT22;27912;51.828;5.688;2022-09-09T05:36:37;14.50;99.90
42245;DHT22;27912;51.828;5.688;2022-09-09T05:39:03;14.50;99.90
42245;DHT22;27912;51.828;5.688;2022-09-09T05:41:29;14.50;99.90
42245;DHT22;27912;51.828;5.688;2022-09-09T05:43:55;14.50;99.90
42245;DHT22;27912;51.828;5.688;2022-09-09T05:46:23;14.50;99.90
42245;DHT22;27912;51.828;5.688;2022-09-09T05:48:50;14.60;99.90
42245;DHT22;27912;51.828;5.688;2022-09-09T05:51:22;14.60;99.90
42245;DHT22;27912;51.828;5.688;2022-09-09T05:53:50;14.70;99.90
42245;DHT22;27912;51.828;5.688;2022-09-09T05:56:21;14.80;99.90
42245;DHT22;27912;51.828;5.688;2022-09-09T05:58:49;14.80;99.90
42245;DHT22;27912;51.828;5.688;2022-09-09T06:01:17;14.80;99.90
42245;DHT22;27912;51.828;5.688;2022-09-09T06:03:44;14.90;99.90
42245;DHT22;27912;51.828;5.688;2022-09-09T06:06:12;14.90;99.90
42245;DHT22;27912;51.828;5.688;2022-09-09T06:08:40;15.00;99.90
42245;DHT22;27912;51.828;5.688;2022-09-09T06:11:15;15.00;99.90
42245;DHT22;27912;51.828;5.688;2022-09-09T06:13:41;15.00;99.90
42245;DHT22;27912;51.828;5.688;2022-09-09T06:16:15;15.00;99.90
42245;DHT22;27912;51.828;5.688;2022-09-09T06:18:42;15.10;99.90
42245;DHT22;27912;51.828;5.688;2022-09-09T06:21:19;15.10;99.90
42245;DHT22;27912;51.828;5.688;2022-09-09T06:23:46;15.20;99.90
42245;DHT22;27912;51.828;5.688;2022-09-09T06:26:32;15.20;99.90
42245;DHT22;27912;51.828;5.688;2022-09-09T06:28:58;15.20;99.90
42245;DHT22;27912;51.828;5.688;2022-09-09T06:31:26;15.20;99.90
42245;DHT22;27912;51.828;5.688;2022-09-09T06:33:56;15.30;99.90
42245;DHT22;27912;51.828;5.688;2022-09-09T06:36:28;15.30;99.90
42245;DHT22;27912;51.828;5.688;2022-09-09T06:38:54;15.30;99.90
42245;DHT22;27912;51.828;5.688;2022-09-09T06:41:23;15.30;99.90
42245;DHT22;27912;51.828;5.688;2022-09-09T06:43:49;15.30;99.90
42245;DHT22;27912;51.828;5.688;2022-09-09T06:46:19;15.30;99.90
42245;DHT22;27912;51.828;5.688;2022-09-09T06:48:47;15.40;99.90
42245;DHT22;27912;51.828;5.688;2022-09-09T06:51:23;15.40;99.90
42245;DHT22;27912;51.828;5.688;2022-09-09T06:53:54;15.40;99.90
42245;DHT22;27912;51.828;5.688;2022-09-09T06:56:21;15.50;99.90
42245;DHT22;27912;51.828;5.688;2022-09-09T06:58:52;15.60;99.90
42245;DHT22;27912;51.828;5.688;2022-09-09T07:01:20;15.70;99.90
42245;DHT22;27912;51.828;5.688;2022-09-09T07:03:48;15.80;99.90
42245;DHT22;27912;51.828;5.688;2022-09-09T07:08:52;16.00;99.90
42245;DHT22;27912;51.828;5.688;2022-09-09T07:11:19;16.20;99.90
42245;DHT22;27912;51.828;5.688;2022-09-09T07:13:45;16.20;99.90
42245;DHT22;27912;51.828;5.688;2022-09-09T07:16:13;16.20;99.90
42245;DHT22;27912;51.828;5.688;2022-09-09T07:18:40;16.30;99.90
42245;DHT22;27912;51.828;5.688;2022-09-09T07:21:06;16.40;99.90
42245;DHT22;27912;51.828;5.688;2022-09-09T07:23:33;16.40;99.90
42245;DHT22;27912;51.828;5.688;2022-09-09T07:26:01;16.50;99.90
42245;DHT22;27912;51.828;5.688;2022-09-09T07:28:27;16.50;99.90
42245;DHT22;27912;51.828;5.688;2022-09-09T07:31:01;16.60;99.90
42245;DHT22;27912;51.828;5.688;2022-09-09T07:33:32;16.70;99.90
42245;DHT22;27912;51.828;5.688;2022-09-09T07:38:46;16.80;99.90
42245;DHT22;27912;51.828;5.688;2022-09-09T07:41:14;16.90;99.90
42245;DHT22;27912;51.828;5.688;2022-09-09T07:43:43;16.90;99.90
42245;DHT22;27912;51.828;5.688;2022-09-09T07:46:10;16.90;99.90
42245;DHT22;27912;51.828;5.688;2022-09-09T07:48:36;16.80;99.90
42245;DHT22;27912;51.828;5.688;2022-09-09T07:51:11;16.90;99.90
42245;DHT22;27912;51.828;5.688;2022-09-09T07:53:38;17.10;99.90
42245;DHT22;27912;51.828;5.688;2022-09-09T07:56:10;17.20;99.90
42245;DHT22;27912;51.828;5.688;2022-09-09T07:58:37;17.30;99.90
42245;DHT22;27912;51.828;5.688;2022-09-09T08:01:10;17.30;99.90
42245;DHT22;27912;51.828;5.688;2022-09-09T08:03:37;17.30;99.90
42245;DHT22;27912;51.828;5.688;2022-09-09T08:06:05;17.40;99.90
42245;DHT22;27912;51.828;5.688;2022-09-09T08:08:32;17.40;99.90
42245;DHT22;27912;51.828;5.688;2022-09-09T08:11:05;17.40;99.90
42245;DHT22;27912;51.828;5.688;2022-09-09T08:13:33;17.50;99.90
42245;DHT22;27912;51.828;5.688;2022-09-09T08:16:14;17.50;99.90
42245;DHT22;27912;51.828;5.688;2022-09-09T08:18:41;17.60;99.90
42245;DHT22;27912;51.828;5.688;2022-09-09T08:21:16;17.70;99.90
42245;DHT22;27912;51.828;5.688;2022-09-09T08:23:44;17.80;99.90
42245;DHT22;27912;51.828;5.688;2022-09-09T08:26:38;17.90;99.90
42245;DHT22;27912;51.828;5.688;2022-09-09T08:29:08;17.90;99.90
42245;DHT22;27912;51.828;5.688;2022-09-09T08:31:45;17.90;99.90
42245;DHT22;27912;51.828;5.688;2022-09-09T08:34:12;17.90;99.90
42245;DHT22;27912;51.828;5.688;2022-09-09T08:36:40;17.90;99.90
42245;DHT22;27912;51.828;5.688;2022-09-09T08:39:08;17.90;99.90
42245;DHT22;27912;51.828;5.688;2022-09-09T08:50:16;18.00;99.90
42245;DHT22;27912;51.828;5.688;2022-09-09T08:52:59;18.00;99.90
42245;DHT22;27912;51.828;5.688;2022-09-09T08:55:35;18.00;99.90
42245;DHT22;27912;51.828;5.688;2022-09-09T08:58:20;17.90;99.90
42245;DHT22;27912;51.828;5.688;2022-09-09T09:04:37;17.90;99.90
42245;DHT22;27912;51.828;5.688;2022-09-09T09:06:55;17.80;99.90
42245;DHT22;27912;51.828;5.688;2022-09-09T09:11:53;17.70;99.90
42245;DHT22;27912;51.828;5.688;2022-09-09T09:14:24;17.80;99.90
42245;DHT22;27912;51.828;5.688;2022-09-09T09:16:54;17.80;99.90
42245;DHT22;27912;51.828;5.688;2022-09-09T09:19:21;17.90;99.90
42245;DHT22;27912;51.828;5.688;2022-09-09T09:22:14;18.00;99.90
42245;DHT22;27912;51.828;5.688;2022-09-09T09:28:02;18.20;99.90
42245;DHT22;27912;51.828;5.688;2022-09-09T09:30:42;18.40;99.90
42245;DHT22;27912;51.828;5.688;2022-09-09T09:33:26;18.60;99.90
42245;DHT22;27912;51.828;5.688;2022-09-09T09:35:52;18.70;99.90
42245;DHT22;27912;51.828;5.688;2022-09-09T09:38:28;18.80;99.90
42245;DHT22;27912;51.828;5.688;2022-09-09T09:40:56;18.90;99.90
42245;DHT22;27912;51.828;5.688;2022-09-09T09:43:36;18.90;99.90
42245;DHT22;27912;51.828;5.688;2022-09-09T09:46:05;18.90;99.90
42245;DHT22;27912;51.828;5.688;2022-09-09T09:48:43;18.90;99.90
42245;DHT22;27912;51.828;5.688;2022-09-09T09:51:10;18.90;99.90
42245;DHT22;27912;51.828;5.688;2022-09-09T09:53:39;18.90;99.90
42245;DHT22;27912;51.828;5.688;2022-09-09T09:56:09;18.80;99.90
42245;DHT22;27912;51.828;5.688;2022-09-09T09:58:49;18.70;99.90
42245;DHT22;27912;51.828;5.688;2022-09-09T10:01:28;18.60;99.90
42245;DHT22;27912;51.828;5.688;2022-09-09T10:03:58;18.60;99.90
42245;DHT22;27912;51.828;5.688;2022-09-09T10:06:35;18.60;99.90
42245;DHT22;27912;51.828;5.688;2022-09-09T10:09:04;18.60;99.90
42245;DHT22;27912;51.828;5.688;2022-09-09T10:14:11;18.60;99.90
42245;DHT22;27912;51.828;5.688;2022-09-09T10:19:13;18.50;99.90
42245;DHT22;27912;51.828;5.688;2022-09-09T10:27:11;18.60;99.90
42245;DHT22;27912;51.828;5.688;2022-09-09T10:29:53;18.70;99.90
42245;DHT22;27912;51.828;5.688;2022-09-09T10:35:19;18.90;99.90
42245;DHT22;27912;51.828;5.688;2022-09-09T10:40:33;18.90;99.90
42245;DHT22;27912;51.828;5.688;2022-09-09T10:54:30;18.50;99.90
42245;DHT22;27912;51.828;5.688;2022-09-09T10:57:03;18.20;99.90
42245;DHT22;27912;51.828;5.688;2022-09-09T10:59:56;18.00;99.90
42245;DHT22;27912;51.828;5.688;2022-09-09T11:02:30;17.80;99.90
42245;DHT22;27912;51.828;5.688;2022-09-09T11:07:36;17.90;99.90
42245;DHT22;27912;51.828;5.688;2022-09-09T11:10:12;18.10;99.90
42245;DHT22;27912;51.828;5.688;2022-09-09T11:12:43;18.30;99.90
42245;DHT22;27912;51.828;5.688;2022-09-09T11:15:31;18.40;99.90
42245;DHT22;27912;51.828;5.688;2022-09-09T11:18:04;18.60;99.90
42245;DHT22;27912;51.828;5.688;2022-09-09T11:20:29;18.60;99.90
42245;DHT22;27912;51.828;5.688;2022-09-09T11:23:09;18.60;99.90
42245;DHT22;27912;51.828;5.688;2022-09-09T11:25:45;18.60;99.90
42245;DHT22;27912;51.828;5.688;2022-09-09T11:31:09;18.70;99.90
42245;DHT22;27912;51.828;5.688;2022-09-09T11:36:51;18.50;99.90
42245;DHT22;27912;51.828;5.688;2022-09-09T11:39:49;18.50;99.90
42245;DHT22;27912;51.828;5.688;2022-09-09T11:42:23;18.40;99.90
42245;DHT22;27912;51.828;5.688;2022-09-09T11:44:49;18.50;99.90
42245;DHT22;27912;51.828;5.688;2022-09-09T11:47:32;18.60;99.90
42245;DHT22;27912;51.828;5.688;2022-09-09T11:52:45;18.50;99.90
42245;DHT22;27912;51.828;5.688;2022-09-09T11:55:28;18.50;99.90
42245;DHT22;27912;51.828;5.688;2022-09-09T11:58:00;18.40;99.90
42245;DHT22;27912;51.828;5.688;2022-09-09T12:00:36;18.20;99.90
42245;DHT22;27912;51.828;5.688;2022-09-09T12:03:04;18.20;99.90
42245;DHT22;27912;51.828;5.688;2022-09-09T12:05:42;18.30;99.90
42245;DHT22;27912;51.828;5.688;2022-09-09T12:08:15;18.20;99.90
42245;DHT22;27912;51.828;5.688;2022-09-09T12:10:57;18.30;99.90
42245;DHT22;27912;51.828;5.688;2022-09-09T12:13:26;18.30;99.90
42245;DHT22;27912;51.828;5.688;2022-09-09T12:15:56;18.40;99.90
42245;DHT22;27912;51.828;5.688;2022-09-09T12:18:24;18.40;99.90
42245;DHT22;27912;51.828;5.688;2022-09-09T12:23:45;18.40;99.90
42245;DHT22;27912;51.828;5.688;2022-09-09T12:31:44;18.90;99.90
42245;DHT22;27912;51.828;5.688;2022-09-09T12:39:55;19.10;99.90
42245;DHT22;27912;51.828;5.688;2022-09-09T12:42:22;19.10;99.90
42245;DHT22;27912;51.828;5.688;2022-09-09T12:47:18;18.90;99.90
42245;DHT22;27912;51.828;5.688;2022-09-09T12:49:47;18.80;99.90
42245;DHT22;27912;51.828;5.688;2022-09-09T12:54:45;18.60;99.90
42245;DHT22;27912;51.828;5.688;2022-09-09T12:57:16;18.70;99.90
42245;DHT22;27912;51.828;5.688;2022-09-09T12:59:44;18.70;99.90
42245;DHT22;27912;51.828;5.688;2022-09-09T13:02:26;19.00;99.90
42245;DHT22;27912;51.828;5.688;2022-09-09T13:04:53;19.20;99.90
42245;DHT22;27912;51.828;5.688;2022-09-09T13:07:21;19.30;99.90
42245;DHT22;27912;51.828;5.688;2022-09-09T13:09:48;19.40;99.90
42245;DHT22;27912;51.828;5.688;2022-09-09T13:12:19;19.50;99.90
42245;DHT22;27912;51.828;5.688;2022-09-09T13:14:47;19.70;99.90
42245;DHT22;27912;51.828;5.688;2022-09-09T13:17:22;19.80;99.90
42245;DHT22;27912;51.828;5.688;2022-09-09T13:19:49;19.90;99.90
42245;DHT22;27912;51.828;5.688;2022-09-09T13:22:34;19.90;99.90
42245;DHT22;27912;51.828;5.688;2022-09-09T13:27:56;20.00;99.90
42245;DHT22;27912;51.828;5.688;2022-09-09T13:30:31;20.00;99.90
42245;DHT22;27912;51.828;5.688;2022-09-09T13:33:04;19.90;99.90
42245;DHT22;27912;51.828;5.688;2022-09-09T13:35:30;19.90;99.90
42245;DHT22;27912;51.828;5.688;2022-09-09T13:37:56;19.90;99.90
42245;DHT22;27912;51.828;5.688;2022-09-09T13:40:23;20.00;99.90
42245;DHT22;27912;51.828;5.688;2022-09-09T13:42:55;20.00;99.90
42245;DHT22;27912;51.828;5.688;2022-09-09T13:45:23;20.00;99.90
42245;DHT22;27912;51.828;5.688;2022-09-09T13:47:52;20.00;99.90
42245;DHT22;27912;51.828;5.688;2022-09-09T13:50:28;19.90;99.90
42245;DHT22;27912;51.828;5.688;2022-09-09T13:52:56;19.90;99.90
42245;DHT22;27912;51.828;5.688;2022-09-09T13:55:24;19.80;99.90
42245;DHT22;27912;51.828;5.688;2022-09-09T13:57:54;19.80;99.90
42245;DHT22;27912;51.828;5.688;2022-09-09T14:00:21;19.70;99.90
42245;DHT22;27912;51.828;5.688;2022-09-09T14:02:48;19.70;99.90
42245;DHT22;27912;51.828;5.688;2022-09-09T14:05:14;19.80;99.90
42245;DHT22;27912;51.828;5.688;2022-09-09T14:07:42;19.90;99.90
42245;DHT22;27912;51.828;5.688;2022-09-09T14:10:08;19.90;99.90
42245;DHT22;27912;51.828;5.688;2022-09-09T14:12:34;20.10;99.90
42245;DHT22;27912;51.828;5.688;2022-09-09T14:15:00;20.10;99.90
42245;DHT22;27912;51.828;5.688;2022-09-09T14:17:26;20.10;99.90
42245;DHT22;27912;51.828;5.688;2022-09-09T14:19:54;20.10;99.90
42245;DHT22;27912;51.828;5.688;2022-09-09T14:22:20;20.10;99.90
42245;DHT22;27912;51.828;5.688;2022-09-09T14:24:46;20.10;99.90
42245;DHT22;27912;51.828;5.688;2022-09-09T14:27:11;20.00;99.90
42245;DHT22;27912;51.828;5.688;2022-09-09T14:29:37;19.90;99.90
42245;DHT22;27912;51.828;5.688;2022-09-09T14:32:02;19.90;99.90
42245;DHT22;27912;51.828;5.688;2022-09-09T14:34:28;19.90;99.90
42245;DHT22;27912;51.828;5.688;2022-09-09T14:36:54;20.00;99.90
42245;DHT22;27912;51.828;5.688;2022-09-09T14:39:19;20.00;99.90
42245;DHT22;27912;51.828;5.688;2022-09-09T14:41:45;19.90;99.90
42245;DHT22;27912;51.828;5.688;2022-09-09T14:44:11;19.80;99.90
42245;DHT22;27912;51.828;5.688;2022-09-09T14:46:36;19.80;99.90
42245;DHT22;27912;51.828;5.688;2022-09-09T14:49:02;19.90;99.90
42245;DHT22;27912;51.828;5.688;2022-09-09T14:51:28;20.20;99.90
42245;DHT22;27912;51.828;5.688;2022-09-09T14:53:58;20.40;99.90
42245;DHT22;27912;51.828;5.688;2022-09-09T14:56:26;20.60;99.90
42245;DHT22;27912;51.828;5.688;2022-09-09T14:58:56;20.70;99.90
42245;DHT22;27912;51.828;5.688;2022-09-09T15:01:23;20.60;99.90
42245;DHT22;27912;51.828;5.688;2022-09-09T15:03:58;20.40;99.90
42245;DHT22;27912;51.828;5.688;2022-09-09T15:06:25;20.40;99.90
42245;DHT22;27912;51.828;5.688;2022-09-09T15:08:52;20.30;99.90
42245;DHT22;27912;51.828;5.688;2022-09-09T15:11:19;20.30;99.90
42245;DHT22;27912;51.828;5.688;2022-09-09T15:13:45;20.30;99.90
42245;DHT22;27912;51.828;5.688;2022-09-09T15:16:15;20.30;99.90
42245;DHT22;27912;51.828;5.688;2022-09-09T15:18:42;20.40;99.90
42245;DHT22;27912;51.828;5.688;2022-09-09T15:21:20;20.50;99.90
42245;DHT22;27912;51.828;5.688;2022-09-09T15:23:46;20.80;99.90
42245;DHT22;27912;51.828;5.688;2022-09-09T15:26:13;21.00;99.90
42245;DHT22;27912;51.828;5.688;2022-09-09T15:28:39;20.90;99.90
42245;DHT22;27912;51.828;5.688;2022-09-09T15:31:30;20.90;99.90
42245;DHT22;27912;51.828;5.688;2022-09-09T15:34:00;20.70;99.90
42245;DHT22;27912;51.828;5.688;2022-09-09T15:36:28;20.50;99.90
42245;DHT22;27912;51.828;5.688;2022-09-09T15:38:54;20.30;99.90
42245;DHT22;27912;51.828;5.688;2022-09-09T15:41:21;20.20;99.90
42245;DHT22;27912;51.828;5.688;2022-09-09T15:43:55;20.00;99.90
42245;DHT22;27912;51.828;5.688;2022-09-09T15:46:36;19.80;99.90
42245;DHT22;27912;51.828;5.688;2022-09-09T15:49:17;19.50;99.90
42245;DHT22;27912;51.828;5.688;2022-09-09T15:51:46;19.30;99.90
42245;DHT22;27912;51.828;5.688;2022-09-09T15:54:14;19.10;99.90
42245;DHT22;27912;51.828;5.688;2022-09-09T15:56:41;19.00;99.90
42245;DHT22;27912;51.828;5.688;2022-09-09T15:59:07;18.90;99.90
42245;DHT22;27912;51.828;5.688;2022-09-09T16:01:32;18.80;99.90
42245;DHT22;27912;51.828;5.688;2022-09-09T16:03:59;18.60;99.90
42245;DHT22;27912;51.828;5.688;2022-09-09T16:06:27;18.50;99.90
42245;DHT22;27912;51.828;5.688;2022-09-09T16:08:54;18.40;99.90
42245;DHT22;27912;51.828;5.688;2022-09-09T16:11:23;18.30;99.90
42245;DHT22;27912;51.828;5.688;2022-09-09T16:13:50;18.20;99.90
42245;DHT22;27912;51.828;5.688;2022-09-09T16:16:19;18.20;99.90
42245;DHT22;27912;51.828;5.688;2022-09-09T16:18:49;18.10;99.90
42245;DHT22;27912;51.828;5.688;2022-09-09T16:21:26;18.00;99.90
42245;DHT22;27912;51.828;5.688;2022-09-09T16:23:54;18.00;99.90
42245;DHT22;27912;51.828;5.688;2022-09-09T16:26:20;17.90;99.90
42245;DHT22;27912;51.828;5.688;2022-09-09T16:28:46;17.80;99.90
42245;DHT22;27912;51.828;5.688;2022-09-09T16:31:23;17.80;99.90
42245;DHT22;27912;51.828;5.688;2022-09-09T16:33:49;17.80;99.90
42245;DHT22;27912;51.828;5.688;2022-09-09T16:36:27;17.70;99.90
42245;DHT22;27912;51.828;5.688;2022-09-09T16:38:58;17.80;99.90
42245;DHT22;27912;51.828;5.688;2022-09-09T16:41:25;17.80;99.90
42245;DHT22;27912;51.828;5.688;2022-09-09T16:43:53;17.80;99.90
42245;DHT22;27912;51.828;5.688;2022-09-09T16:46:19;17.90;99.90
42245;DHT22;27912;51.828;5.688;2022-09-09T16:48:46;17.90;99.90
42245;DHT22;27912;51.828;5.688;2022-09-09T16:51:27;17.90;99.90
42245;DHT22;27912;51.828;5.688;2022-09-09T16:53:54;17.90;99.90
42245;DHT22;27912;51.828;5.688;2022-09-09T16:56:24;17.80;99.90
42245;DHT22;27912;51.828;5.688;2022-09-09T16:59:10;17.80;99.90
42245;DHT22;27912;51.828;5.688;2022-09-09T17:01:38;17.70;99.90
42245;DHT22;27912;51.828;5.688;2022-09-09T17:04:08;17.70;99.90
42245;DHT22;27912;51.828;5.688;2022-09-09T17:06:34;17.60;99.90
42245;DHT22;27912;51.828;5.688;2022-09-09T17:09:07;17.60;99.90
42245;DHT22;27912;51.828;5.688;2022-09-09T17:11:33;17.50;99.90
42245;DHT22;27912;51.828;5.688;2022-09-09T17:14:08;17.40;99.90
42245;DHT22;27912;51.828;5.688;2022-09-09T17:16:58;17.40;99.90
42245;DHT22;27912;51.828;5.688;2022-09-09T17:19:23;17.30;99.90
42245;DHT22;27912;51.828;5.688;2022-09-09T17:21:49;17.30;99.90
42245;DHT22;27912;51.828;5.688;2022-09-09T17:24:14;17.30;99.90
42245;DHT22;27912;51.828;5.688;2022-09-09T17:26:41;17.30;99.90
42245;DHT22;27912;51.828;5.688;2022-09-09T17:29:07;17.30;99.90
42245;DHT22;27912;51.828;5.688;2022-09-09T17:31:33;17.20;99.90
42245;DHT22;27912;51.828;5.688;2022-09-09T17:33:59;17.20;99.90
42245;DHT22;27912;51.828;5.688;2022-09-09T17:36:31;17.10;99.90
42245;DHT22;27912;51.828;5.688;2022-09-09T17:38:58;17.10;99.90